AEE104 LGAV-LGTS
Flight info
| Callsign | AEE104 |
|---|---|
| Flight time | 0h 45m |
| Altitude | 32000 |
| Route | KRO UT162 NEVRA UT514 OSMOS |
| Aircraft | A21N/M-SDE3FGHIRWY/LB1 |
Departure
| Time | 2026-05-07 13:02 |
|---|---|
| Airport | Athens Eleftherios Venizelos International Airport (LGAV) |
Arrival
| Time | 2026-05-07 13:47 |
|---|---|
| Airport | Thessaloniki Macedonia International Airport (LGTS) |
| Time | Latitude | Longitude | Altitude | Speed | Heading |
|---|---|---|---|---|---|
| 2026-05-07 12:44 | 37.93560 | 23.94797 | 288 ft | 0 kts | 307° |
| 2026-05-07 12:52 | 37.93560 | 23.94798 | 289 ft | 1 kts | 307° |
| 2026-05-07 12:52 | 37.93550 | 23.94812 | 289 ft | 2 kts | 319° |
| 2026-05-07 12:53 | 37.93539 | 23.94824 | 289 ft | 2 kts | 328° |
| 2026-05-07 12:53 | 37.93525 | 23.94832 | 289 ft | 2 kts | 339° |
| 2026-05-07 12:53 | 37.93511 | 23.94838 | 289 ft | 2 kts | 349° |
| 2026-05-07 12:53 | 37.93497 | 23.94840 | 289 ft | 2 kts | 358° |
| 2026-05-07 12:54 | 37.93482 | 23.94839 | 289 ft | 2 kts | 8° |
| 2026-05-07 12:54 | 37.93468 | 23.94835 | 289 ft | 2 kts | 19° |
| 2026-05-07 12:54 | 37.93454 | 23.94828 | 289 ft | 2 kts | 29° |
| 2026-05-07 12:54 | 37.93441 | 23.94817 | 289 ft | 2 kts | 39° |
| 2026-05-07 12:55 | 37.93430 | 23.94805 | 289 ft | 2 kts | 39° |
| 2026-05-07 12:55 | 37.93427 | 23.94803 | 289 ft | 0 kts | 38° |
| 2026-05-07 12:57 | 37.93429 | 23.94805 | 289 ft | 1 kts | 42° |
| 2026-05-07 12:57 | 37.93448 | 23.94926 | 289 ft | 20 kts | 65° |
| 2026-05-07 12:57 | 37.93557 | 23.95049 | 288 ft | 24 kts | 37° |
| 2026-05-07 12:58 | 37.93716 | 23.95198 | 288 ft | 32 kts | 39° |
| 2026-05-07 12:58 | 37.93903 | 23.95379 | 288 ft | 33 kts | 37° |
| 2026-05-07 12:58 | 37.94084 | 23.95549 | 288 ft | 31 kts | 38° |
| 2026-05-07 12:58 | 37.94252 | 23.95710 | 288 ft | 29 kts | 36° |
| 2026-05-07 12:59 | 37.94412 | 23.95860 | 288 ft | 27 kts | 37° |
| 2026-05-07 12:59 | 37.94566 | 23.96006 | 288 ft | 26 kts | 42° |
| 2026-05-07 12:59 | 37.94631 | 23.96204 | 288 ft | 24 kts | 48° |
| 2026-05-07 12:59 | 37.94759 | 23.96334 | 288 ft | 23 kts | 37° |
| 2026-05-07 13:00 | 37.94906 | 23.96472 | 287 ft | 28 kts | 37° |
| 2026-05-07 13:00 | 37.95086 | 23.96641 | 287 ft | 35 kts | 38° |
| 2026-05-07 13:00 | 37.95274 | 23.96819 | 287 ft | 27 kts | 39° |
| 2026-05-07 13:00 | 37.95241 | 23.97000 | 287 ft | 23 kts | 139° |
| 2026-05-07 13:01 | 37.95167 | 23.97003 | 287 ft | 0 kts | 211° |
| 2026-05-07 13:01 | 37.95087 | 23.96928 | 287 ft | 47 kts | 217° |
| 2026-05-07 13:01 | 37.94628 | 23.96486 | 288 ft | 116 kts | 217° |
| 2026-05-07 13:02 | 37.93828 | 23.95728 | 333 ft | 164 kts | 217° |
| 2026-05-07 13:02 | 37.92868 | 23.94969 | 951 ft | 165 kts | 207° |
| 2026-05-07 13:02 | 37.91809 | 23.94370 | 1700 ft | 163 kts | 205° |
| 2026-05-07 13:02 | 37.90794 | 23.93818 | 2278 ft | 160 kts | 206° |
| 2026-05-07 13:03 | 37.89761 | 23.93145 | 2567 ft | 174 kts | 210° |
| 2026-05-07 13:03 | 37.88667 | 23.92372 | 2866 ft | 188 kts | 210° |
| 2026-05-07 13:03 | 37.87470 | 23.91513 | 3179 ft | 204 kts | 210° |
| 2026-05-07 13:03 | 37.86174 | 23.90579 | 3477 ft | 222 kts | 210° |
| 2026-05-07 13:04 | 37.84766 | 23.89558 | 3767 ft | 243 kts | 210° |
| 2026-05-07 13:04 | 37.83249 | 23.88451 | 4203 ft | 258 kts | 210° |
| 2026-05-07 13:04 | 37.81667 | 23.87285 | 4890 ft | 264 kts | 210° |
| 2026-05-07 13:04 | 37.80073 | 23.86101 | 5623 ft | 267 kts | 210° |
| 2026-05-07 13:05 | 37.78463 | 23.84958 | 6300 ft | 270 kts | 203° |
| 2026-05-07 13:05 | 37.76631 | 23.84524 | 6942 ft | 274 kts | 176° |
| 2026-05-07 13:05 | 37.74814 | 23.85218 | 7601 ft | 278 kts | 150° |
| 2026-05-07 13:05 | 37.73425 | 23.86895 | 8258 ft | 285 kts | 124° |
| 2026-05-07 13:06 | 37.72794 | 23.89273 | 8916 ft | 291 kts | 96° |
| 2026-05-07 13:06 | 37.73027 | 23.91823 | 9558 ft | 298 kts | 71° |
| 2026-05-07 13:06 | 37.74115 | 23.94020 | 10184 ft | 302 kts | 50° |
| 2026-05-07 13:06 | 37.75515 | 23.96021 | 10687 ft | 311 kts | 49° |
| 2026-05-07 13:07 | 37.76983 | 23.98109 | 10986 ft | 328 kts | 48° |
| 2026-05-07 13:07 | 37.78531 | 24.00319 | 11283 ft | 343 kts | 48° |
| 2026-05-07 13:07 | 37.80156 | 24.02653 | 11641 ft | 357 kts | 48° |
| 2026-05-07 13:07 | 37.81840 | 24.04971 | 12229 ft | 360 kts | 41° |
| 2026-05-07 13:08 | 37.83994 | 24.06519 | 12820 ft | 360 kts | 14° |
| 2026-05-07 13:08 | 37.86464 | 24.06762 | 13493 ft | 357 kts | 354° |
| 2026-05-07 13:08 | 37.88934 | 24.06485 | 14143 ft | 358 kts | 353° |
| 2026-05-07 13:08 | 37.91412 | 24.06216 | 14743 ft | 361 kts | 353° |
| 2026-05-07 13:09 | 37.93919 | 24.05989 | 15317 ft | 364 kts | 354° |
| 2026-05-07 13:09 | 37.96481 | 24.05798 | 15842 ft | 369 kts | 354° |
| 2026-05-07 13:09 | 37.99050 | 24.05635 | 16350 ft | 374 kts | 355° |
| 2026-05-07 13:09 | 38.01654 | 24.05488 | 16858 ft | 377 kts | 355° |
| 2026-05-07 13:10 | 38.04277 | 24.05349 | 17123 ft | 379 kts | 355° |
| 2026-05-07 13:10 | 38.06963 | 24.05213 | 17161 ft | 378 kts | 355° |
| 2026-05-07 13:10 | 38.09583 | 24.05084 | 17178 ft | 377 kts | 355° |
| 2026-05-07 13:10 | 38.12219 | 24.04954 | 17166 ft | 377 kts | 355° |
| 2026-05-07 13:11 | 38.14843 | 24.04827 | 17152 ft | 376 kts | 355° |
| 2026-05-07 13:11 | 38.17491 | 24.04701 | 17145 ft | 376 kts | 355° |
| 2026-05-07 13:11 | 38.20085 | 24.04578 | 17141 ft | 376 kts | 355° |
| 2026-05-07 13:11 | 38.22707 | 24.04453 | 17133 ft | 376 kts | 355° |
| 2026-05-07 13:12 | 38.25089 | 24.04339 | 17124 ft | 376 kts | 355° |
| 2026-05-07 13:12 | 38.27749 | 24.04210 | 17114 ft | 376 kts | 355° |
| 2026-05-07 13:12 | 38.30368 | 24.04084 | 17108 ft | 376 kts | 355° |
| 2026-05-07 13:12 | 38.32990 | 24.03956 | 17255 ft | 382 kts | 355° |
| 2026-05-07 13:13 | 38.35636 | 24.03829 | 17808 ft | 383 kts | 355° |
| 2026-05-07 13:13 | 38.38319 | 24.03701 | 18361 ft | 384 kts | 355° |
| 2026-05-07 13:13 | 38.40978 | 24.03574 | 18820 ft | 388 kts | 355° |
| 2026-05-07 13:13 | 38.43692 | 24.03443 | 19275 ft | 391 kts | 355° |
| 2026-05-07 13:14 | 38.46402 | 24.03312 | 19728 ft | 394 kts | 355° |
| 2026-05-07 13:14 | 38.49154 | 24.03151 | 20182 ft | 396 kts | 352° |
| 2026-05-07 13:14 | 38.51817 | 24.02320 | 20609 ft | 393 kts | 337° |
| 2026-05-07 13:14 | 38.54369 | 24.00963 | 21083 ft | 394 kts | 334° |
| 2026-05-07 13:15 | 38.56893 | 23.99540 | 21512 ft | 397 kts | 333° |
| 2026-05-07 13:15 | 38.59423 | 23.98136 | 21938 ft | 400 kts | 334° |
| 2026-05-07 13:15 | 38.61964 | 23.96759 | 22360 ft | 403 kts | 334° |
| 2026-05-07 13:15 | 38.64571 | 23.95369 | 22782 ft | 405 kts | 334° |
| 2026-05-07 13:16 | 38.67197 | 23.93987 | 23190 ft | 408 kts | 335° |
| 2026-05-07 13:16 | 38.69840 | 23.92606 | 23584 ft | 410 kts | 335° |
| 2026-05-07 13:16 | 38.72470 | 23.91237 | 23961 ft | 413 kts | 335° |
| 2026-05-07 13:16 | 38.75147 | 23.89846 | 24134 ft | 415 kts | 335° |
| 2026-05-07 13:17 | 38.77813 | 23.88462 | 24176 ft | 413 kts | 335° |
| 2026-05-07 13:17 | 38.80471 | 23.87083 | 24197 ft | 412 kts | 335° |
| 2026-05-07 13:17 | 38.83126 | 23.85706 | 24205 ft | 411 kts | 335° |
| 2026-05-07 13:17 | 38.85802 | 23.84319 | 24162 ft | 410 kts | 335° |
| 2026-05-07 13:18 | 38.88435 | 23.82952 | 24121 ft | 410 kts | 335° |
| 2026-05-07 13:18 | 38.91075 | 23.81579 | 24102 ft | 410 kts | 335° |
| 2026-05-07 13:18 | 38.93698 | 23.80213 | 24093 ft | 410 kts | 335° |
| 2026-05-07 13:18 | 38.96356 | 23.78828 | 24092 ft | 410 kts | 335° |
| 2026-05-07 13:19 | 38.98999 | 23.77450 | 24093 ft | 410 kts | 335° |
| 2026-05-07 13:19 | 39.01614 | 23.76085 | 24093 ft | 410 kts | 335° |
| 2026-05-07 13:19 | 39.04270 | 23.74698 | 24092 ft | 411 kts | 335° |
| 2026-05-07 13:19 | 39.06903 | 23.73322 | 24095 ft | 411 kts | 335° |
| 2026-05-07 13:20 | 39.09541 | 23.71944 | 24098 ft | 411 kts | 335° |
| 2026-05-07 13:20 | 39.12207 | 23.70548 | 24099 ft | 411 kts | 335° |
| 2026-05-07 13:20 | 39.14903 | 23.69136 | 24100 ft | 410 kts | 335° |
| 2026-05-07 13:20 | 39.17521 | 23.67764 | 24100 ft | 410 kts | 335° |
| 2026-05-07 13:21 | 39.20188 | 23.66365 | 24099 ft | 410 kts | 335° |
| 2026-05-07 13:21 | 39.22639 | 23.65077 | 24097 ft | 410 kts | 335° |
| 2026-05-07 13:21 | 39.25277 | 23.63690 | 24096 ft | 410 kts | 335° |
| 2026-05-07 13:21 | 39.27949 | 23.62285 | 24097 ft | 410 kts | 335° |
| 2026-05-07 13:22 | 39.30595 | 23.60892 | 24097 ft | 410 kts | 335° |
| 2026-05-07 13:22 | 39.33268 | 23.59484 | 24097 ft | 410 kts | 335° |
| 2026-05-07 13:22 | 39.35915 | 23.58089 | 24097 ft | 410 kts | 335° |
| 2026-05-07 13:22 | 39.38605 | 23.56669 | 24097 ft | 410 kts | 335° |
| 2026-05-07 13:23 | 39.41260 | 23.55266 | 24098 ft | 410 kts | 335° |
| 2026-05-07 13:23 | 39.43914 | 23.53863 | 24098 ft | 410 kts | 335° |
| 2026-05-07 13:23 | 39.46541 | 23.52474 | 24098 ft | 410 kts | 335° |
| 2026-05-07 13:23 | 39.49185 | 23.51075 | 24098 ft | 410 kts | 335° |
| 2026-05-07 13:24 | 39.51802 | 23.49690 | 24098 ft | 410 kts | 335° |
| 2026-05-07 13:24 | 39.54454 | 23.48284 | 24098 ft | 410 kts | 335° |
| 2026-05-07 13:24 | 39.57072 | 23.46896 | 24098 ft | 410 kts | 335° |
| 2026-05-07 13:24 | 39.59712 | 23.45494 | 24097 ft | 410 kts | 335° |
| 2026-05-07 13:25 | 39.62371 | 23.44081 | 24097 ft | 410 kts | 335° |
| 2026-05-07 13:25 | 39.64991 | 23.42688 | 24096 ft | 409 kts | 335° |
| 2026-05-07 13:25 | 39.67645 | 23.41274 | 24096 ft | 410 kts | 335° |
| 2026-05-07 13:25 | 39.70281 | 23.39869 | 24096 ft | 410 kts | 335° |
| 2026-05-07 13:26 | 39.72916 | 23.38463 | 24096 ft | 410 kts | 335° |
| 2026-05-07 13:26 | 39.75550 | 23.37057 | 23717 ft | 412 kts | 335° |
| 2026-05-07 13:26 | 39.78225 | 23.35628 | 23106 ft | 412 kts | 335° |
| 2026-05-07 13:26 | 39.80878 | 23.34209 | 22501 ft | 410 kts | 335° |
| 2026-05-07 13:27 | 39.83534 | 23.32789 | 21919 ft | 407 kts | 335° |
| 2026-05-07 13:27 | 39.86156 | 23.31386 | 21364 ft | 403 kts | 335° |
| 2026-05-07 13:27 | 39.88699 | 23.30022 | 20834 ft | 398 kts | 335° |
| 2026-05-07 13:27 | 39.91242 | 23.28659 | 20295 ft | 394 kts | 335° |
| 2026-05-07 13:28 | 39.93795 | 23.27290 | 19749 ft | 390 kts | 335° |
| 2026-05-07 13:28 | 39.96271 | 23.25959 | 19216 ft | 386 kts | 335° |
| 2026-05-07 13:28 | 39.98734 | 23.24634 | 18685 ft | 383 kts | 335° |
| 2026-05-07 13:28 | 40.01207 | 23.23301 | 18158 ft | 380 kts | 335° |
| 2026-05-07 13:29 | 40.03632 | 23.21992 | 17642 ft | 377 kts | 335° |
| 2026-05-07 13:29 | 40.06038 | 23.20692 | 17127 ft | 375 kts | 335° |
| 2026-05-07 13:29 | 40.08437 | 23.19396 | 16610 ft | 372 kts | 335° |
| 2026-05-07 13:29 | 40.10815 | 23.18110 | 16075 ft | 370 kts | 334° |
| 2026-05-07 13:30 | 40.13149 | 23.16697 | 15528 ft | 366 kts | 331° |
| 2026-05-07 13:30 | 40.15446 | 23.15190 | 14975 ft | 362 kts | 330° |
| 2026-05-07 13:30 | 40.17655 | 23.13723 | 14437 ft | 359 kts | 330° |
| 2026-05-07 13:30 | 40.19889 | 23.12236 | 13900 ft | 356 kts | 330° |
| 2026-05-07 13:31 | 40.22067 | 23.10786 | 13379 ft | 354 kts | 330° |
| 2026-05-07 13:31 | 40.24248 | 23.09333 | 12854 ft | 351 kts | 330° |
| 2026-05-07 13:31 | 40.26420 | 23.07886 | 12326 ft | 349 kts | 330° |
| 2026-05-07 13:31 | 40.28587 | 23.06440 | 11795 ft | 346 kts | 330° |
| 2026-05-07 13:32 | 40.30722 | 23.05015 | 11270 ft | 344 kts | 330° |
| 2026-05-07 13:32 | 40.32844 | 23.03597 | 10746 ft | 341 kts | 330° |
| 2026-05-07 13:32 | 40.34927 | 23.02206 | 10230 ft | 338 kts | 330° |
| 2026-05-07 13:32 | 40.37027 | 23.00803 | 9701 ft | 336 kts | 330° |
| 2026-05-07 13:33 | 40.39101 | 22.99413 | 9174 ft | 333 kts | 330° |
| 2026-05-07 13:33 | 40.41136 | 22.98045 | 8652 ft | 329 kts | 330° |
| 2026-05-07 13:33 | 40.43158 | 22.96681 | 8130 ft | 327 kts | 330° |
| 2026-05-07 13:33 | 40.45179 | 22.95313 | 7607 ft | 324 kts | 330° |
| 2026-05-07 13:34 | 40.47180 | 22.93951 | 7087 ft | 323 kts | 330° |
| 2026-05-07 13:34 | 40.51147 | 22.91235 | 6126 ft | 317 kts | 330° |
| 2026-05-07 13:34 | 40.53057 | 22.89923 | 5991 ft | 302 kts | 330° |
| 2026-05-07 13:35 | 40.54864 | 22.88681 | 5984 ft | 284 kts | 330° |
| 2026-05-07 13:35 | 40.56576 | 22.87501 | 5986 ft | 277 kts | 330° |
| 2026-05-07 13:35 | 40.58292 | 22.86312 | 5880 ft | 277 kts | 330° |
| 2026-05-07 13:35 | 40.59983 | 22.85135 | 5734 ft | 277 kts | 330° |
| 2026-05-07 13:36 | 40.61702 | 22.83936 | 5585 ft | 276 kts | 330° |
| 2026-05-07 13:36 | 40.63402 | 22.82752 | 5437 ft | 275 kts | 330° |
| 2026-05-07 13:36 | 40.65078 | 22.81584 | 5291 ft | 275 kts | 330° |
| 2026-05-07 13:36 | 40.66772 | 22.80401 | 5144 ft | 274 kts | 330° |
| 2026-05-07 13:37 | 40.68450 | 22.79226 | 5008 ft | 270 kts | 330° |
| 2026-05-07 13:37 | 40.70054 | 22.78102 | 4945 ft | 256 kts | 330° |
| 2026-05-07 13:37 | 40.71614 | 22.77006 | 4789 ft | 246 kts | 330° |
| 2026-05-07 13:37 | 40.73089 | 22.75969 | 4637 ft | 237 kts | 330° |
| 2026-05-07 13:38 | 40.74530 | 22.74955 | 4480 ft | 229 kts | 330° |
| 2026-05-07 13:38 | 40.75929 | 22.74025 | 4318 ft | 221 kts | 340° |
| 2026-05-07 13:38 | 40.77420 | 22.73880 | 4135 ft | 215 kts | 15° |
| 2026-05-07 13:38 | 40.78658 | 22.74845 | 4052 ft | 201 kts | 46° |
| 2026-05-07 13:39 | 40.79523 | 22.76276 | 4059 ft | 197 kts | 54° |
| 2026-05-07 13:39 | 40.80302 | 22.77738 | 4021 ft | 196 kts | 55° |
| 2026-05-07 13:39 | 40.81078 | 22.79222 | 4007 ft | 196 kts | 56° |
| 2026-05-07 13:39 | 40.81660 | 22.80827 | 3982 ft | 195 kts | 81° |
| 2026-05-07 13:40 | 40.81437 | 22.82564 | 3983 ft | 194 kts | 121° |
| 2026-05-07 13:40 | 40.80551 | 22.83874 | 3921 ft | 193 kts | 137° |
| 2026-05-07 13:40 | 40.79564 | 22.85108 | 3737 ft | 186 kts | 138° |
| 2026-05-07 13:40 | 40.78647 | 22.86254 | 3546 ft | 176 kts | 137° |
| 2026-05-07 13:41 | 40.77785 | 22.87347 | 3354 ft | 168 kts | 137° |
| 2026-05-07 13:41 | 40.76881 | 22.88310 | 3179 ft | 166 kts | 147° |
| 2026-05-07 13:41 | 40.75887 | 22.89051 | 3012 ft | 166 kts | 156° |
| 2026-05-07 13:41 | 40.74806 | 22.89611 | 2847 ft | 165 kts | 162° |
| 2026-05-07 13:42 | 40.73703 | 22.90056 | 2682 ft | 165 kts | 165° |
| 2026-05-07 13:42 | 40.72591 | 22.90456 | 2527 ft | 165 kts | 166° |
| 2026-05-07 13:42 | 40.71480 | 22.90833 | 2507 ft | 165 kts | 167° |
| 2026-05-07 13:42 | 40.70368 | 22.91199 | 2499 ft | 165 kts | 167° |
| 2026-05-07 13:43 | 40.69244 | 22.91562 | 2495 ft | 165 kts | 167° |
| 2026-05-07 13:43 | 40.68113 | 22.91925 | 2493 ft | 166 kts | 167° |
| 2026-05-07 13:43 | 40.66988 | 22.92284 | 2490 ft | 163 kts | 167° |
| 2026-05-07 13:43 | 40.65933 | 22.92622 | 2507 ft | 153 kts | 167° |
| 2026-05-07 13:44 | 40.64905 | 22.92950 | 2385 ft | 152 kts | 167° |
| 2026-05-07 13:44 | 40.63921 | 22.93266 | 2165 ft | 142 kts | 167° |
| 2026-05-07 13:44 | 40.62965 | 22.93572 | 1985 ft | 141 kts | 167° |
| 2026-05-07 13:44 | 40.62013 | 22.93872 | 1809 ft | 140 kts | 167° |
| 2026-05-07 13:45 | 40.61062 | 22.94177 | 1631 ft | 140 kts | 167° |
| 2026-05-07 13:45 | 40.60119 | 22.94480 | 1451 ft | 139 kts | 168° |
| 2026-05-07 13:45 | 40.59166 | 22.94772 | 1250 ft | 139 kts | 167° |
| 2026-05-07 13:45 | 40.58233 | 22.95070 | 1065 ft | 138 kts | 167° |
| 2026-05-07 13:46 | 40.57290 | 22.95387 | 883 ft | 138 kts | 167° |
| 2026-05-07 13:46 | 40.56363 | 22.95692 | 720 ft | 139 kts | 168° |
| 2026-05-07 13:46 | 40.55423 | 22.95994 | 535 ft | 139 kts | 168° |
| 2026-05-07 13:46 | 40.54485 | 22.96293 | 336 ft | 138 kts | 168° |
| 2026-05-07 13:47 | 40.53549 | 22.96593 | 151 ft | 138 kts | 168° |
| 2026-05-07 13:47 | 40.52618 | 22.96891 | 16 ft | 134 kts | 168° |
| 2026-05-07 13:47 | 40.51956 | 22.97104 | 10 ft | 71 kts | 167° |
| 2026-05-07 13:47 | 40.51574 | 22.97257 | 17 ft | 41 kts | 145° |
| 2026-05-07 13:48 | 40.51586 | 22.97397 | 17 ft | 19 kts | 349° |
| 2026-05-07 13:48 | 40.51719 | 22.97353 | 16 ft | 17 kts | 346° |
| 2026-05-07 13:48 | 40.51787 | 22.97333 | 16 ft | 0 kts | 347° |
| 2026-05-07 13:48 | 40.51799 | 22.97329 | 16 ft | 6 kts | 347° |
| 2026-05-07 13:49 | 40.51889 | 22.97301 | 15 ft | 20 kts | 346° |
| 2026-05-07 13:49 | 40.52056 | 22.97250 | 15 ft | 25 kts | 347° |
| 2026-05-07 13:49 | 40.52225 | 22.97198 | 17 ft | 23 kts | 347° |
| 2026-05-07 13:49 | 40.52349 | 22.97155 | 17 ft | 12 kts | 355° |
| 2026-05-07 13:50 | 40.52387 | 22.97234 | 17 ft | 9 kts | 102° |
| 2026-05-07 13:50 | 40.52364 | 22.97276 | 17 ft | 0 kts | 131° |
| 2026-05-07 13:50 | 40.52358 | 22.97286 | 17 ft | 2 kts | 138° |
| 2026-05-07 13:50 | 40.52336 | 22.97311 | 17 ft | 4 kts | 138° |
| 2026-05-07 13:51 | 40.52343 | 22.97338 | 17 ft | 5 kts | 20° |
| 2026-05-07 13:51 | 40.52377 | 22.97355 | 17 ft | 0 kts | 25° |